Time;durP1;ratioP1;P1;durP2;ratioP2;P2;SDS_P1;SDS_P2;PMS_P1;PMS_P2;Temp;Humidity;BMP_temperature;BMP_pressure;BME280_temperature;BME280_humidity;BME280_pressure;Samples;Min_cycle;Max_cycle;Signal;HPM_P1;HPM_P2
2023/02/07 00:01:29;;;;;;;;;;;;;;;;;;5066128;28;19913;-82
2023/02/07 00:03:55;;;;;;;;;;;;;;;;;;5071908;28;20406;-82
2023/02/07 00:06:20;;;;;;;;;;;;;;;;;;5071116;28;19977;-82
2023/02/07 00:08:45;;;;;;;;;;;;;;;;;;5068409;28;20386;-82
2023/02/07 00:11:10;;;;;;;;;;;;;;;;;;5062773;28;20007;-83
2023/02/07 00:13:36;;;;;;;;;;;;;;;;;;5065623;28;19923;-83
2023/02/07 00:16:01;;;;;;;;;;;;;;;;;;5069228;28;20312;-82
2023/02/07 00:18:26;;;;;;;;;;;;;;;;;;5065951;28;19916;-82
2023/02/07 00:20:51;;;;;;;;;;;;;;;;;;5061277;28;19992;-83
2023/02/07 00:23:16;;;;;;;;;;;;;;;;;;5066163;28;19970;-82
2023/02/07 00:25:41;;;;;;;;;;;;;;;;;;5060788;28;19912;-82
2023/02/07 00:28:06;;;;;;;;;;;;;;;;;;5061598;28;19912;-82
2023/02/07 00:30:31;;;;;;;;;;;;;;;;;;5063262;28;20413;-83
2023/02/07 00:32:57;;;;;;;;;;;;;;;;;;5057159;28;19942;-82
2023/02/07 00:35:22;;;;;;;;;;;;;;;;;;5073308;28;19916;-82
2023/02/07 00:37:47;;;;;;;;;;;;;;;;;;5090200;28;19919;-82
2023/02/07 00:40:12;;;;;;;;;;;;;;;;;;5063477;28;19916;-83
2023/02/07 00:42:37;;;;;;;;;;;;;;;;;;5068325;28;20294;-83
2023/02/07 00:45:02;;;;;;;;;;;;;;;;;;5065808;28;19963;-83
2023/02/07 00:47:27;;;;;;;;;;;;;;;;;;5081019;28;20006;-83
2023/02/07 00:49:53;;;;;;;;;;;;;;;;;;5067386;28;19966;-83
2023/02/07 00:52:18;;;;;;;;;;;;;;;;;;5065001;28;20285;-84
2023/02/07 00:54:43;;;;;;;;;;;;;;;;;;5061913;28;20381;-83
2023/02/07 00:57:08;;;;;;;;;;;;;;;;;;5067207;28;19916;-84
2023/02/07 00:59:33;;;;;;;;;;;;;;;;;;5082169;28;19958;-84
2023/02/07 01:01:58;;;;;;;;;;;;;;;;;;5063894;28;19920;-83
2023/02/07 01:04:24;;;;;;;;;;;;;;;;;;5066279;28;19918;-83
2023/02/07 01:06:49;;;;;;;;;;;;;;;;;;5071222;28;19912;-84
2023/02/07 01:09:14;;;;;;;;;;;;;;;;;;5085194;28;19998;-84
2023/02/07 01:11:39;;;;;;;;;;;;;;;;;;5080340;28;20290;-84
2023/02/07 01:14:04;;;;;;;;;;;;;;;;;;5072251;28;20309;-84
2023/02/07 01:16:30;;;;;;;;;;;;;;;;;;5071962;28;19948;-84
2023/02/07 01:18:55;;;;;;;;;;;;;;;;;;5069581;28;19920;-84
2023/02/07 01:21:20;;;;;;;;;;;;;;;;;;5064316;28;20008;-84
2023/02/07 01:23:45;;;;;;;;;;;;;;;;;;5074629;28;19916;-84
2023/02/07 01:26:10;;;;;;;;;;;;;;;;;;5065738;28;20126;-83
2023/02/07 01:28:35;;;;;;;;;;;;;;;;;;5063429;28;19993;-83
2023/02/07 01:31:01;;;;;;;;;;;;;;;;;;5068658;28;19919;-83
2023/02/07 01:33:26;;;;;;;;;;;;;;;;;;5067783;28;20373;-83
2023/02/07 01:35:51;;;;;;;;;;;;;;;;;;5092723;28;20290;-83
2023/02/07 01:38:16;;;;;;;;;;;;;;;;;;5067316;28;20437;-83
2023/02/07 01:40:41;;;;;;;;;;;;;;;;;;5068121;28;19916;-83
2023/02/07 01:43:06;;;;;;;;;;;;;;;;;;5069621;28;20382;-83
2023/02/07 01:45:32;;;;;;;;;;;;;;;;;;5063710;28;19913;-83
2023/02/07 01:47:57;;;;;;;;;;;;;;;;;;5072799;28;20248;-83
2023/02/07 01:50:22;;;;;;;;;;;;;;;;;;5068542;28;19916;-83
2023/02/07 01:52:47;;;;;;;;;;;;;;;;;;5069789;28;19958;-83
2023/02/07 01:55:12;;;;;;;;;;;;;;;;;;5073443;28;19916;-83
2023/02/07 01:57:37;;;;;;;;;;;;;;;;;;5065180;28;20393;-82
2023/02/07 02:00:02;;;;;;;;;;;;;;;;;;5062699;28;19920;-82
2023/02/07 02:02:27;;;;;;;;;;;;;;;;;;5072690;28;19958;-82
2023/02/07 02:04:54;;;;;;;;;;;;;;;;;;5065533;28;19935;-82
2023/02/07 02:07:19;;;;;;;;;;;;;;;;;;5074887;28;19913;-83
2023/02/07 02:09:44;;;;;;;;;;;;;;;;;;5066986;28;19913;-82
2023/02/07 02:12:09;;;;;;;;;;;;;;;;;;5068584;28;19920;-84
2023/02/07 02:14:34;;;;;;;;;;;;;;;;;;5072554;28;19999;-82
2023/02/07 02:17:00;;;;;;;;;;;;;;;;;;5071008;28;19921;-83
2023/02/07 02:19:25;;;;;;;;;;;;;;;;;;5071211;28;19935;-83
2023/02/07 02:21:50;;;;;;;;;;;;;;;;;;5071357;28;19919;-84
2023/02/07 02:24:15;;;;;;;;;;;;;;;;;;5064747;28;19920;-83
2023/02/07 02:26:40;;;;;;;;;;;;;;;;;;5065989;28;20003;-83
2023/02/07 02:29:06;;;;;;;;;;;;;;;;;;5070591;28;19919;-84
2023/02/07 02:31:31;;;;;;;;;;;;;;;;;;5063480;28;20069;-83
2023/02/07 02:33:56;;;;;;;;;;;;;;;;;;5069781;28;19912;-83
2023/02/07 02:36:21;;;;;;;;;;;;;;;;;;5065241;28;19991;-83
2023/02/07 02:38:47;;;;;;;;;;;;;;;;;;5068407;28;20343;-83
2023/02/07 02:41:13;;;;;;;;;;;;;;;;;;5061418;28;19913;-83
2023/02/07 02:43:38;;;;;;;;;;;;;;;;;;5057991;28;19917;-82
2023/02/07 02:46:04;;;;;;;;;;;;;;;;;;5066903;28;19915;-82
2023/02/07 02:48:29;;;;;;;;;;;;;;;;;;5062440;28;19948;-81
2023/02/07 02:50:54;;;;;;;;;;;;;;;;;;5056799;28;19919;-83
2023/02/07 02:53:19;;;;;;;;;;;;;;;;;;5064930;28;20282;-82
2023/02/07 02:55:44;;;;;;;;;;;;;;;;;;5072206;28;19920;-82
2023/02/07 02:58:09;;;;;;;;;;;;;;;;;;5063083;28;19919;-82
2023/02/07 03:00:35;;;;;;;;;;;;;;;;;;5054359;28;19983;-83
2023/02/07 03:03:00;;;;;;;;;;;;;;;;;;5059691;28;19912;-83
2023/02/07 03:05:25;;;;;;;;;;;;;;;;;;5070292;28;19977;-82
2023/02/07 03:07:50;;;;;;;;;;;;;;;;;;5059369;28;19919;-83
2023/02/07 03:10:15;;;;;;;;;;;;;;;;;;5054826;28;20111;-83
2023/02/07 03:12:40;;;;;;;;;;;;;;;;;;5066533;28;19913;-82
2023/02/07 03:15:06;;;;;;;;;;;;;;;;;;5074231;28;19916;-83
2023/02/07 03:17:31;;;;;;;;;;;;;;;;;;5073194;28;19923;-83
2023/02/07 03:19:56;;;;;;;;;;;;;;;;;;5082802;28;19916;-82
2023/02/07 03:22:22;;;;;;;;;;;;;;;;;;5056501;28;19916;-83
2023/02/07 03:24:47;;;;;;;;;;;;;;;;;;5083200;28;19944;-82
2023/02/07 03:27:12;;;;;;;;;;;;;;;;;;5072722;28;19912;-82
2023/02/07 03:29:37;;;;;;;;;;;;;;;;;;5068428;28;19954;-81
2023/02/07 03:32:02;;;;;;;;;;;;;;;;;;5063702;28;20363;-82
2023/02/07 03:34:27;;;;;;;;;;;;;;;;;;5066466;28;20397;-82
2023/02/07 03:36:52;;;;;;;;;;;;;;;;;;5071575;28;20394;-82
2023/02/07 03:39:18;;;;;;;;;;;;;;;;;;5066342;28;20374;-81
2023/02/07 03:41:43;;;;;;;;;;;;;;;;;;5057310;28;19952;-82
2023/02/07 03:44:08;;;;;;;;;;;;;;;;;;5063462;28;19912;-82
2023/02/07 03:46:33;;;;;;;;;;;;;;;;;;5057463;28;19913;-83
2023/02/07 03:48:58;;;;;;;;;;;;;;;;;;5070255;28;19912;-82
2023/02/07 03:51:23;;;;;;;;;;;;;;;;;;5067973;28;19916;-82
2023/02/07 03:53:48;;;;;;;;;;;;;;;;;;5063582;28;19912;-82
2023/02/07 03:56:13;;;;;;;;;;;;;;;;;;5091093;28;19922;-82
2023/02/07 03:58:39;;;;;;;;;;;;;;;;;;5089774;28;19912;-81
2023/02/07 04:01:04;;;;;;;;;;;;;;;;;;5063038;28;20276;-81
2023/02/07 04:03:29;;;;;;;;;;;;;;;;;;5088998;28;19912;-81
2023/02/07 04:05:54;;;;;;;;;;;;;;;;;;5091563;28;19912;-81
2023/02/07 04:08:19;;;;;;;;;;;;;;;;;;5064349;28;19912;-82
2023/02/07 04:10:44;;;;;;;;;;;;;;;;;;5063589;28;19924;-82
2023/02/07 04:13:09;;;;;;;;;;;;;;;;;;5070747;28;20374;-82
2023/02/07 04:15:35;;;;;;;;;;;;;;;;;;5064148;28;19971;-82
2023/02/07 04:18:00;;;;;;;;;;;;;;;;;;5090815;28;19912;-82
2023/02/07 04:20:25;;;;;;;;;;;;;;;;;;5072226;28;19912;-82
2023/02/07 04:22:50;;;;;;;;;;;;;;;;;;5069063;28;20335;-82
2023/02/07 04:25:15;;;;;;;;;;;;;;;;;;5091133;28;19919;-82
2023/02/07 04:27:40;;;;;;;;;;;;;;;;;;5071947;28;19915;-82
2023/02/07 04:30:06;;;;;;;;;;;;;;;;;;5088868;28;19926;-82
2023/02/07 04:32:31;;;;;;;;;;;;;;;;;;5066646;28;19922;-81
2023/02/07 04:34:56;;;;;;;;;;;;;;;;;;5069572;28;19920;-82
2023/02/07 04:37:21;;;;;;;;;;;;;;;;;;5067417;28;19921;-82
2023/02/07 04:39:46;;;;;;;;;;;;;;;;;;5081921;28;19920;-83
2023/02/07 04:42:12;;;;;;;;;;;;;;;;;;5070883;28;19957;-83
2023/02/07 04:44:37;;;;;;;;;;;;;;;;;;5061499;28;20003;-83
2023/02/07 04:47:02;;;;;;;;;;;;;;;;;;5064776;28;19993;-82
2023/02/07 04:49:27;;;;;;;;;;;;;;;;;;5083821;28;19955;-81
2023/02/07 04:51:52;;;;;;;;;;;;;;;;;;5090801;28;19961;-83
2023/02/07 04:54:17;;;;;;;;;;;;;;;;;;5068709;28;20437;-82
2023/02/07 04:56:43;;;;;;;;;;;;;;;;;;5090912;28;19969;-83
2023/02/07 04:59:08;;;;;;;;;;;;;;;;;;5090552;28;19912;-83
2023/02/07 05:01:33;;;;;;;;;;;;;;;;;;5067923;28;19919;-83
2023/02/07 05:03:58;;;;;;;;;;;;;;;;;;5073781;28;19954;-83
2023/02/07 05:06:23;;;;;;;;;;;;;;;;;;5069771;28;19912;-82
2023/02/07 05:08:48;;;;;;;;;;;;;;;;;;5082050;28;19909;-83
2023/02/07 05:11:13;;;;;;;;;;;;;;;;;;5093391;28;19963;-83
2023/02/07 05:13:39;;;;;;;;;;;;;;;;;;5072464;28;20005;-83
2023/02/07 05:16:04;;;;;;;;;;;;;;;;;;5061476;28;19920;-81
2023/02/07 05:18:29;;;;;;;;;;;;;;;;;;5066064;28;19965;-82
2023/02/07 05:20:54;;;;;;;;;;;;;;;;;;5066805;28;20070;-82
2023/02/07 05:23:19;;;;;;;;;;;;;;;;;;5064191;28;19911;-82
2023/02/07 05:25:44;;;;;;;;;;;;;;;;;;5068754;28;20078;-82
2023/02/07 05:28:10;;;;;;;;;;;;;;;;;;5084359;28;19912;-83
2023/02/07 05:30:35;;;;;;;;;;;;;;;;;;5086747;28;19916;-83
2023/02/07 05:33:03;;;;;;;;;;;;;;;;;;5070891;28;19912;-84
2023/02/07 05:35:28;;;;;;;;;;;;;;;;;;5084032;28;20379;-84
2023/02/07 05:37:53;;;;;;;;;;;;;;;;;;5067800;28;20263;-83
2023/02/07 05:40:18;;;;;;;;;;;;;;;;;;5062095;28;20381;-83
2023/02/07 05:42:43;;;;;;;;;;;;;;;;;;5062233;28;20073;-83
2023/02/07 05:45:09;;;;;;;;;;;;;;;;;;5063952;28;20402;-82
2023/02/07 05:47:34;;;;;;;;;;;;;;;;;;5087325;28;19912;-83
2023/02/07 05:49:59;;;;;;;;;;;;;;;;;;5064680;28;19966;-83
2023/02/07 05:52:24;;;;;;;;;;;;;;;;;;5067237;28;20278;-85
2023/02/07 05:54:49;;;;;;;;;;;;;;;;;;5062934;28;20351;-81
2023/02/07 05:57:14;;;;;;;;;;;;;;;;;;5064749;28;19927;-82
2023/02/07 05:59:39;;;;;;;;;;;;;;;;;;5066288;28;19912;-82
2023/02/07 06:02:05;;;;;;;;;;;;;;;;;;5062441;28;20369;-84
2023/02/07 06:04:30;;;;;;;;;;;;;;;;;;5068438;28;19960;-82
2023/02/07 06:06:55;;;;;;;;;;;;;;;;;;5067963;28;19928;-83
2023/02/07 06:09:21;;;;;;;;;;;;;;;;;;5067916;28;19915;-83
2023/02/07 06:11:55;;;;;;;;;;;;;;;;;;5082207;28;19909;-84
2023/02/07 06:14:20;;;;;;;;;;;;;;;;;;5085840;28;20366;-84
2023/02/07 06:16:48;;;;;;;;;;;;;;;;;;5068832;28;20320;-84
2023/02/07 06:19:16;;;;;;;;;;;;;;;;;;5064207;28;19913;-91
2023/02/07 06:21:42;;;;;;;;;;;;;;;;;;5067721;28;20183;-85
2023/02/07 06:24:13;;;;;;;;;;;;;;;;;;5088772;28;20002;-85
2023/02/07 06:26:38;;;;;;;;;;;;;;;;;;5072207;28;19923;-83
2023/02/07 06:29:03;;;;;;;;;;;;;;;;;;5092192;28;19912;-85
2023/02/07 06:31:29;;;;;;;;;;;;;;;;;;5069789;28;20101;-85
2023/02/07 06:33:54;;;;;;;;;;;;;;;;;;5071583;28;20332;-85
2023/02/07 06:36:19;;;;;;;;;;;;;;;;;;5074046;28;19916;-83
2023/02/07 06:38:44;;;;;;;;;;;;;;;;;;5063148;28;19912;-86
2023/02/07 06:41:10;;;;;;;;;;;;;;;;;;5082766;28;19942;-85
2023/02/07 06:43:35;;;;;;;;;;;;;;;;;;5067432;28;19912;-85
2023/02/07 06:46:00;;;;;;;;;;;;;;;;;;5070491;28;19908;-85
2023/02/07 06:48:25;;;;;;;;;;;;;;;;;;5064203;28;19962;-85
2023/02/07 06:50:50;;;;;;;;;;;;;;;;;;5071836;28;20393;-87
2023/02/07 06:53:15;;;;;;;;;;;;;;;;;;5070027;28;19927;-84
2023/02/07 06:55:41;;;;;;;;;;;;;;;;;;5070707;28;19939;-84
2023/02/07 06:58:06;;;;;;;;;;;;;;;;;;5073821;28;19912;-86
2023/02/07 07:00:34;;;;;;;;;;;;;;;;;;5074773;28;19961;-82
2023/02/07 07:02:59;;;;;;;;;;;;;;;;;;5073119;28;20421;-82
2023/02/07 07:05:28;;;;;;;;;;;;;;;;;;5071040;28;20085;-82
2023/02/07 07:07:59;;;;;;;;;;;;;;;;;;5090188;28;19915;-83
2023/02/07 07:10:24;;;;;;;;;;;;;;;;;;5088190;28;19919;-83
2023/02/07 07:12:49;;;;;;;;;;;;;;;;;;5068555;28;19920;-83
2023/02/07 07:15:14;;;;;;;;;;;;;;;;;;5090913;28;19969;-83
2023/02/07 07:17:39;;;;;;;;;;;;;;;;;;5064335;28;19983;-83
2023/02/07 07:20:06;;;;;;;;;;;;;;;;;;5055112;28;19939;-82
2023/02/07 07:22:31;;;;;;;;;;;;;;;;;;5068433;28;19962;-84
2023/02/07 07:24:56;;;;;;;;;;;;;;;;;;5072586;28;19912;-83
2023/02/07 07:27:21;;;;;;;;;;;;;;;;;;5069158;28;19919;-83
2023/02/07 07:29:47;;;;;;;;;;;;;;;;;;5086765;28;20025;-84
2023/02/07 07:32:12;;;;;;;;;;;;;;;;;;5074563;28;20426;-83
2023/02/07 07:34:37;;;;;;;;;;;;;;;;;;5069480;28;19917;-83
2023/02/07 07:37:02;;;;;;;;;;;;;;;;;;5061730;28;19982;-83
2023/02/07 07:39:27;;;;;;;;;;;;;;;;;;5056086;28;19909;-83
2023/02/07 07:41:52;;;;;;;;;;;;;;;;;;5072807;28;20010;-82
2023/02/07 07:44:18;;;;;;;;;;;;;;;;;;5056554;28;19978;-83
2023/02/07 07:46:43;;;;;;;;;;;;;;;;;;5054439;28;19916;-83
2023/02/07 07:49:08;;;;;;;;;;;;;;;;;;5055043;28;19936;-82
2023/02/07 07:51:33;;;;;;;;;;;;;;;;;;5074564;28;19951;-82
2023/02/07 07:53:58;;;;;;;;;;;;;;;;;;5075054;28;19908;-83
2023/02/07 07:56:25;;;;;;;;;;;;;;;;;;5057932;28;20363;-83
2023/02/07 07:58:50;;;;;;;;;;;;;;;;;;5055055;28;19909;-83
2023/02/07 08:01:15;;;;;;;;;;;;;;;;;;5073864;28;19918;-83
2023/02/07 08:03:40;;;;;;;;;;;;;;;;;;5074647;28;19912;-83
2023/02/07 08:06:05;;;;;;;;;;;;;;;;;;5069927;28;19916;-83
2023/02/07 08:08:31;;;;;;;;;;;;;;;;;;5073928;28;19912;-83
2023/02/07 08:10:56;;;;;;;;;;;;;;;;;;5073948;28;20361;-84
2023/02/07 08:13:21;;;;;;;;;;;;;;;;;;5069810;28;20406;-83
2023/02/07 08:15:46;;;;;;;;;;;;;;;;;;5060925;28;19920;-83
2023/02/07 08:18:11;;;;;;;;;;;;;;;;;;5058882;28;20002;-84
2023/02/07 08:20:36;;;;;;;;;;;;;;;;;;5069853;28;19945;-84
2023/02/07 08:23:02;;;;;;;;;;;;;;;;;;5074531;28;19914;-84
2023/02/07 08:25:27;;;;;;;;;;;;;;;;;;5069847;28;19970;-85
2023/02/07 08:27:52;;;;;;;;;;;;;;;;;;5062698;28;19917;-84
2023/02/07 08:30:17;;;;;;;;;;;;;;;;;;5072954;28;19916;-86
2023/02/07 08:32:44;;;;;;;;;;;;;;;;;;5074719;28;19927;-83
2023/02/07 08:35:09;;;;;;;;;;;;;;;;;;5058349;28;19909;-84
2023/02/07 08:37:34;;;;;;;;;;;;;;;;;;5082755;28;19912;-84
2023/02/07 08:39:59;;;;;;;;;;;;;;;;;;5074359;28;19912;-84
2023/02/07 08:42:24;;;;;;;;;;;;;;;;;;5073156;28;19940;-83
2023/02/07 08:44:49;;;;;;;;;;;;;;;;;;5061243;28;19908;-83
2023/02/07 08:47:15;;;;;;;;;;;;;;;;;;5071415;28;19913;-83
2023/02/07 08:49:46;;;;;;;;;;;;;;;;;;5071752;28;19958;-83
2023/02/07 08:52:11;;;;;;;;;;;;;;;;;;5060555;28;20355;-84
2023/02/07 08:54:36;;;;;;;;;;;;;;;;;;5060588;28;19926;-85
2023/02/07 08:57:01;;;;;;;;;;;;;;;;;;5065301;28;20270;-84
2023/02/07 08:59:26;;;;;;;;;;;;;;;;;;5063419;28;19955;-85
2023/02/07 09:01:52;;;;;;;;;;;;;;;;;;5085798;28;19919;-85
2023/02/07 09:04:17;;;;;;;;;;;;;;;;;;5093943;28;19955;-84
2023/02/07 09:06:42;;;;;;;;;;;;;;;;;;5071609;28;20281;-84
2023/02/07 09:09:08;;;;;;;;;;;;;;;;;;5066135;28;20002;-84
2023/02/07 09:11:33;;;;;;;;;;;;;;;;;;5063566;28;19913;-84
2023/02/07 09:13:59;;;;;;;;;;;;;;;;;;5059088;28;19923;-84
2023/02/07 09:16:24;;;;;;;;;;;;;;;;;;5063979;28;20373;-83
2023/02/07 09:18:49;;;;;;;;;;;;;;;;;;5073946;28;19916;-84
2023/02/07 09:21:14;;;;;;;;;;;;;;;;;;5065365;28;19961;-84
2023/02/07 09:23:39;;;;;;;;;;;;;;;;;;5089833;28;19913;-85
2023/02/07 09:26:04;;;;;;;;;;;;;;;;;;5093599;28;19912;-82
2023/02/07 09:28:30;;;;;;;;;;;;;;;;;;5089566;28;20373;-85
2023/02/07 09:30:55;;;;;;;;;;;;;;;;;;5086508;28;20014;-88
2023/02/07 09:33:22;;;;;;;;;;;;;;;;;;5068166;28;19913;-85
2023/02/07 09:35:47;;;;;;;;;;;;;;;;;;5070718;28;19916;-85
2023/02/07 09:38:12;;;;;;;;;;;;;;;;;;5067253;28;19916;-85
2023/02/07 09:40:38;;;;;;;;;;;;;;;;;;5069139;28;19916;-85
2023/02/07 09:43:03;;;;;;;;;;;;;;;;;;5076226;28;20423;-85
2023/02/07 09:45:28;;;;;;;;;;;;;;;;;;5077194;28;19908;-85
2023/02/07 09:47:53;;;;;;;;;;;;;;;;;;5077036;28;19913;-86
2023/02/07 09:50:18;;;;;;;;;;;;;;;;;;5087050;28;20279;-86
2023/02/07 09:52:44;;;;;;;;;;;;;;;;;;5068713;28;19919;-85
2023/02/07 09:55:09;;;;;;;;;;;;;;;;;;5063883;28;19912;-85
2023/02/07 09:57:36;;;;;;;;;;;;;;;;;;5073373;28;20231;-85
2023/02/07 10:00:02;;;;;;;;;;;;;;;;;;5080985;28;19916;-85
2023/02/07 10:02:27;;;;;;;;;;;;;;;;;;5074330;28;19919;-85
2023/02/07 10:04:53;;;;;;;;;;;;;;;;;;5066952;28;19979;-85
2023/02/07 10:07:18;;;;;;;;;;;;;;;;;;5061520;28;19955;-86
2023/02/07 10:09:43;;;;;;;;;;;;;;;;;;5062452;28;19912;-85
2023/02/07 10:12:08;;;;;;;;;;;;;;;;;;5085729;28;20340;-86
2023/02/07 10:14:33;;;;;;;;;;;;;;;;;;5067174;28;20259;-85
2023/02/07 10:16:58;;;;;;;;;;;;;;;;;;5068311;28;19924;-85
2023/02/07 10:19:25;;;;;;;;;;;;;;;;;;5071315;28;19960;-86
2023/02/07 10:21:50;;;;;;;;;;;;;;;;;;5084957;28;19938;-83
2023/02/07 10:24:15;;;;;;;;;;;;;;;;;;5087109;28;19915;-83
2023/02/07 10:26:40;;;;;;;;;;;;;;;;;;5081633;28;19919;-84
2023/02/07 10:29:05;;;;;;;;;;;;;;;;;;5087773;28;19912;-83
2023/02/07 10:31:31;;;;;;;;;;;;;;;;;;5089402;28;19919;-84
2023/02/07 10:33:56;;;;;;;;;;;;;;;;;;5081032;28;20500;-85
2023/02/07 10:36:22;;;;;;;;;;;;;;;;;;5057038;28;19917;-84
2023/02/07 10:38:47;;;;;;;;;;;;;;;;;;5063353;28;19916;-85
2023/02/07 10:41:12;;;;;;;;;;;;;;;;;;5068307;28;19924;-85
2023/02/07 10:43:37;;;;;;;;;;;;;;;;;;5072555;28;20248;-85
2023/02/07 10:46:04;;;;;;;;;;;;;;;;;;5069021;28;19912;-84
2023/02/07 10:48:29;;;;;;;;;;;;;;;;;;5072532;28;19912;-85
2023/02/07 10:50:57;;;;;;;;;;;;;;;;;;5064725;28;19919;-84
2023/02/07 10:53:22;;;;;;;;;;;;;;;;;;5088096;28;19931;-85
2023/02/07 10:55:47;;;;;;;;;;;;;;;;;;5088440;28;19916;-84
2023/02/07 10:58:13;;;;;;;;;;;;;;;;;;5068439;28;19917;-84
2023/02/07 11:00:47;;;;;;;;;;;;;;;;;;5071396;28;19924;-84
2023/02/07 11:03:12;;;;;;;;;;;;;;;;;;5090079;28;19922;-84
2023/02/07 11:05:38;;;;;;;;;;;;;;;;;;5072957;28;19912;-84
2023/02/07 11:08:03;;;;;;;;;;;;;;;;;;5069567;28;20350;-84
2023/02/07 11:10:30;;;;;;;;;;;;;;;;;;5066341;28;20375;-84
2023/02/07 11:12:58;;;;;;;;;;;;;;;;;;5065590;28;20275;-85
2023/02/07 11:15:25;;;;;;;;;;;;;;;;;;5073896;28;19916;-84
2023/02/07 11:17:50;;;;;;;;;;;;;;;;;;5061242;28;19923;-84
2023/02/07 11:20:15;;;;;;;;;;;;;;;;;;5060535;28;19916;-85
2023/02/07 11:22:40;;;;;;;;;;;;;;;;;;5069459;22;19912;-84
2023/02/07 11:25:05;;;;;;;;;;;;;;;;;;5055268;28;19925;-84
2023/02/07 11:27:30;;;;;;;;;;;;;;;;;;5058484;28;20388;-83
2023/02/07 11:29:56;;;;;;;;;;;;;;;;;;5052700;28;19919;-83
2023/02/07 11:32:21;;;;;;;;;;;;;;;;;;5057552;28;19920;-84
2023/02/07 11:34:46;;;;;;;;;;;;;;;;;;5061989;28;19916;-83
2023/02/07 11:37:11;;;;;;;;;;;;;;;;;;5058075;28;19938;-84
2023/02/07 11:39:36;;;;;;;;;;;;;;;;;;5057591;28;19920;-85
2023/02/07 11:42:02;;;;;;;;;;;;;;;;;;5045870;28;19916;-86
2023/02/07 11:44:27;;;;;;;;;;;;;;;;;;5048233;28;20257;-84
2023/02/07 11:46:52;;;;;;;;;;;;;;;;;;5053414;28;20346;-86
2023/02/07 11:49:17;;;;;;;;;;;;;;;;;;5056084;28;19920;-88
2023/02/07 11:51:42;;;;;;;;;;;;;;;;;;5067748;28;19947;-87
2023/02/07 11:54:08;;;;;;;;;;;;;;;;;;5049581;28;19940;-85
2023/02/07 11:56:33;;;;;;;;;;;;;;;;;;5066804;28;20380;-86
2023/02/07 11:58:58;;;;;;;;;;;;;;;;;;5058726;28;19923;-86
2023/02/07 12:01:23;;;;;;;;;;;;;;;;;;5051927;28;20311;-87
2023/02/07 12:03:48;;;;;;;;;;;;;;;;;;5045180;28;19920;-86
2023/02/07 12:06:13;;;;;;;;;;;;;;;;;;5056291;28;20011;-86
2023/02/07 12:08:39;;;;;;;;;;;;;;;;;;5072350;28;20026;-84
2023/02/07 12:11:04;;;;;;;;;;;;;;;;;;5047644;28;19999;-86
2023/02/07 12:13:29;;;;;;;;;;;;;;;;;;5052510;28;19920;-85
2023/02/07 12:15:54;;;;;;;;;;;;;;;;;;5053977;28;19912;-87
2023/02/07 12:18:24;;;;;;;;;;;;;;;;;;5040133;28;20301;-87
2023/02/07 12:20:49;;;;;;;;;;;;;;;;;;5050465;28;19951;-85
2023/02/07 12:23:14;;;;;;;;;;;;;;;;;;5051847;28;19917;-86
2023/02/07 12:25:40;;;;;;;;;;;;;;;;;;5052938;28;20027;-86
2023/02/07 12:28:05;;;;;;;;;;;;;;;;;;5052396;28;20004;-86
2023/02/07 12:30:33;;;;;;;;;;;;;;;;;;5049870;28;19923;-85
2023/02/07 12:33:00;;;;;;;;;;;;;;;;;;5038156;28;19962;-84
2023/02/07 12:35:25;;;;;;;;;;;;;;;;;;5052310;28;20426;-88
2023/02/07 12:37:50;;;;;;;;;;;;;;;;;;5052773;28;19917;-86
2023/02/07 12:40:16;;;;;;;;;;;;;;;;;;5051323;28;19912;-88
2023/02/07 12:42:41;;;;;;;;;;;;;;;;;;5046862;28;20352;-88
2023/02/07 12:45:07;;;;;;;;;;;;;;;;;;5052190;28;19916;-88
2023/02/07 12:47:32;;;;;;;;;;;;;;;;;;5051667;28;20344;-88
2023/02/07 12:49:57;;;;;;;;;;;;;;;;;;5052035;28;20438;-88
2023/02/07 12:52:23;;;;;;;;;;;;;;;;;;5048715;28;19923;-86
2023/02/07 12:54:48;;;;;;;;;;;;;;;;;;5051034;28;19919;-85
2023/02/07 12:57:13;;;;;;;;;;;;;;;;;;5050939;28;19917;-87
2023/02/07 12:59:40;;;;;;;;;;;;;;;;;;5050101;28;19959;-86
2023/02/07 13:02:05;;;;;;;;;;;;;;;;;;5047078;28;19966;-88
2023/02/07 13:04:30;;;;;;;;;;;;;;;;;;5036602;28;19913;-86
2023/02/07 13:06:55;;;;;;;;;;;;;;;;;;5050215;28;19913;-87
2023/02/07 13:09:20;;;;;;;;;;;;;;;;;;5050945;28;20000;-85
2023/02/07 13:11:45;;;;;;;;;;;;;;;;;;5049208;28;19960;-85
2023/02/07 13:14:10;;;;;;;;;;;;;;;;;;5049048;28;20408;-86
2023/02/07 13:16:36;;;;;;;;;;;;;;;;;;5053032;28;19928;-85
2023/02/07 13:19:01;;;;;;;;;;;;;;;;;;5046381;28;20411;-85
2023/02/07 13:21:26;;;;;;;;;;;;;;;;;;5054235;28;19909;-86
2023/02/07 13:23:51;;;;;;;;;;;;;;;;;;5052361;28;20019;-86
2023/02/07 13:26:18;;;;;;;;;;;;;;;;;;5056001;28;19916;-85
2023/02/07 13:28:43;;;;;;;;;;;;;;;;;;5053911;28;19924;-86
2023/02/07 13:31:09;;;;;;;;;;;;;;;;;;5053356;28;20285;-84
2023/02/07 13:33:34;;;;;;;;;;;;;;;;;;5051307;28;19913;-85
2023/02/07 13:35:59;;;;;;;;;;;;;;;;;;5053815;28;19944;-85
2023/02/07 13:38:24;;;;;;;;;;;;;;;;;;5055390;28;19932;-85
2023/02/07 13:40:49;;;;;;;;;;;;;;;;;;5052147;28;20360;-86
2023/02/07 13:43:14;;;;;;;;;;;;;;;;;;5052226;28;19913;-85
2023/02/07 13:45:39;;;;;;;;;;;;;;;;;;5051635;28;19917;-85
2023/02/07 13:48:05;;;;;;;;;;;;;;;;;;5051102;28;19913;-85
2023/02/07 13:50:30;;;;;;;;;;;;;;;;;;5055621;28;19944;-85
2023/02/07 13:52:56;;;;;;;;;;;;;;;;;;5054206;28;20335;-86
2023/02/07 13:55:21;;;;;;;;;;;;;;;;;;5052520;28;19917;-82
2023/02/07 14:00:30;;;;;;;;;;;;;;;;;;5052526;28;19987;-85
2023/02/07 14:02:56;;;;;;;;;;;;;;;;;;5051217;28;20365;-85
2023/02/07 14:05:21;;;;;;;;;;;;;;;;;;5047901;28;20289;-85
2023/02/07 14:07:46;;;;;;;;;;;;;;;;;;5050414;28;20003;-85
2023/02/07 14:10:11;;;;;;;;;;;;;;;;;;5045347;28;19959;-82
2023/02/07 14:12:38;;;;;;;;;;;;;;;;;;5050753;28;20369;-82
2023/02/07 14:15:03;;;;;;;;;;;;;;;;;;5049087;28;19917;-81
2023/02/07 14:17:28;;;;;;;;;;;;;;;;;;5045288;28;19917;-81
2023/02/07 14:19:53;;;;;;;;;;;;;;;;;;5048120;28;20344;-85
2023/02/07 14:22:18;;;;;;;;;;;;;;;;;;5054239;28;20259;-85
2023/02/07 14:24:43;;;;;;;;;;;;;;;;;;5052749;28;19952;-85
2023/02/07 14:27:08;;;;;;;;;;;;;;;;;;5045265;28;19916;-86
2023/02/07 14:29:34;;;;;;;;;;;;;;;;;;5054786;28;19913;-84
2023/02/07 14:31:59;;;;;;;;;;;;;;;;;;5050746;28;19913;-87
2023/02/07 14:34:24;;;;;;;;;;;;;;;;;;5052016;28;20297;-86
2023/02/07 14:36:49;;;;;;;;;;;;;;;;;;5050595;28;19925;-84
2023/02/07 14:39:14;;;;;;;;;;;;;;;;;;5064071;28;19920;-85
2023/02/07 14:41:40;;;;;;;;;;;;;;;;;;5045018;28;19916;-84
2023/02/07 14:44:05;;;;;;;;;;;;;;;;;;5051322;28;19948;-83
2023/02/07 14:46:31;;;;;;;;;;;;;;;;;;5056327;28;19912;-83
2023/02/07 14:48:56;;;;;;;;;;;;;;;;;;5050351;28;19912;-85
2023/02/07 14:51:22;;;;;;;;;;;;;;;;;;5064169;28;20000;-83
2023/02/07 14:53:49;;;;;;;;;;;;;;;;;;5045031;28;19951;-86
2023/02/07 14:56:14;;;;;;;;;;;;;;;;;;5049795;28;19916;-84
2023/02/07 14:58:39;;;;;;;;;;;;;;;;;;5044602;28;20365;-86
2023/02/07 15:01:04;;;;;;;;;;;;;;;;;;5062213;28;19916;-83
2023/02/07 15:03:29;;;;;;;;;;;;;;;;;;5060096;28;19997;-84
2023/02/07 15:05:54;;;;;;;;;;;;;;;;;;5062736;28;19916;-85
2023/02/07 15:08:19;;;;;;;;;;;;;;;;;;5059595;28;19962;-86
2023/02/07 15:10:45;;;;;;;;;;;;;;;;;;5048868;28;19952;-84
2023/02/07 15:13:10;;;;;;;;;;;;;;;;;;5045532;28;19920;-82
2023/02/07 15:15:35;;;;;;;;;;;;;;;;;;5050143;28;19913;-82
2023/02/07 15:18:00;;;;;;;;;;;;;;;;;;5057355;28;19913;-83
2023/02/07 15:20:25;;;;;;;;;;;;;;;;;;5065831;28;19913;-81
2023/02/07 15:22:50;;;;;;;;;;;;;;;;;;5072584;28;19913;-83
2023/02/07 15:25:16;;;;;;;;;;;;;;;;;;5065404;28;20014;-83
2023/02/07 15:27:41;;;;;;;;;;;;;;;;;;5055888;28;20357;-86
2023/02/07 15:30:07;;;;;;;;;;;;;;;;;;5055651;28;20281;-84
2023/02/07 15:32:33;;;;;;;;;;;;;;;;;;5062092;28;19917;-84
2023/02/07 15:34:58;;;;;;;;;;;;;;;;;;5055216;28;19920;-84
2023/02/07 15:37:24;;;;;;;;;;;;;;;;;;5064442;28;19917;-80
2023/02/07 15:39:49;;;;;;;;;;;;;;;;;;5044927;28;19916;-84
2023/02/07 15:42:15;;;;;;;;;;;;;;;;;;5041709;28;20425;-86
2023/02/07 15:44:40;;;;;;;;;;;;;;;;;;5048621;28;19917;-82
2023/02/07 15:47:05;;;;;;;;;;;;;;;;;;5059848;28;19913;-85
2023/02/07 15:49:31;;;;;;;;;;;;;;;;;;5061606;28;19966;-85
2023/02/07 15:51:56;;;;;;;;;;;;;;;;;;5049615;28;19988;-86
2023/02/07 15:54:21;;;;;;;;;;;;;;;;;;5052949;28;19919;-83
2023/02/07 15:56:46;;;;;;;;;;;;;;;;;;5062975;28;20007;-84
2023/02/07 15:59:12;;;;;;;;;;;;;;;;;;5044953;28;20277;-83
2023/02/07 16:01:38;;;;;;;;;;;;;;;;;;5071490;28;19913;-83
2023/02/07 16:04:03;;;;;;;;;;;;;;;;;;5060724;28;19917;-83
2023/02/07 16:06:29;;;;;;;;;;;;;;;;;;5052005;28;19913;-83
2023/02/07 16:08:54;;;;;;;;;;;;;;;;;;5065717;28;20027;-83
2023/02/07 16:11:19;;;;;;;;;;;;;;;;;;5050804;28;19916;-84
2023/02/07 16:13:44;;;;;;;;;;;;;;;;;;5049236;28;20324;-85
2023/02/07 16:16:11;;;;;;;;;;;;;;;;;;5056308;28;19920;-85
2023/02/07 16:18:36;;;;;;;;;;;;;;;;;;5051342;28;19912;-85
2023/02/07 16:21:01;;;;;;;;;;;;;;;;;;5065795;28;20326;-83
2023/02/07 16:23:28;;;;;;;;;;;;;;;;;;5059238;28;19916;-84
2023/02/07 16:25:57;;;;;;;;;;;;;;;;;;5053139;28;19916;-85
2023/02/07 16:28:22;;;;;;;;;;;;;;;;;;5059973;28;19955;-85
2023/02/07 16:30:47;;;;;;;;;;;;;;;;;;5059814;28;20383;-85
2023/02/07 16:33:12;;;;;;;;;;;;;;;;;;5052974;28;20349;-84
2023/02/07 16:35:37;;;;;;;;;;;;;;;;;;5052630;28;19913;-84